Parkers Prairie, MN

3:06 PM CDT on March 29, 2017 (GMT -0500)
Private Lake | | Change Station

Elev 1427 ft 46.02 °N, 95.49 °W | Updated 11 seconds ago

Partly Cloudy
Partly Cloudy
53.4 °F
Feels Like 53.4 °F
N
7.2
Wind Variable Wind from SSE
Gusts 7.4 mph

Today
High -- | Low -- °F
--% Chance of Precip.
Yesterday
High -- | Low -- °F
Precip. -- in
Pressure 30.18 in
Visibility 10.0 miles
Clouds Clear
Dew Point 24 °F
Humidity 31%
Rainfall 0.00 in
Snow Depth Not available.
7:06 AM 7:46 PM
Waxing Crescent, 4% visible
METAR KAXN 291953Z AUTO 13009KT 10SM CLR 12/01 A3014 RMK AO2 SLP218 T01170011
Pressure 30.18 in
Visibility 10.0 miles
Clouds Clear
Dew Point 24 °F
Humidity 31%
Rainfall 0.00 in
Snow Depth Not available.
7:06 AM 7:46 PM
Waxing Crescent, 4% visible
METAR KAXN 291953Z AUTO 13009KT 10SM CLR 12/01 A3014 RMK AO2 SLP218 T01170011

Get Severe Weather Alerts

Thanks for signing up!

Be on the lookout for a verification email in your inbox.

You'll start receiving the daily forecast at 8 AM.

×

10-Day Weather Forecast

Almanac

Astronomy

Mar. 29, 2017 Rise Set
Actual Time
Civil Twilight
Nautical Twilight
Astronomical Twilight
Moon
Length of Visible Light
Length of Day
Tomorrow will be .
, % of the Moon is Illuminated

Today's Extremes

State Highs State Lows

Community

WunderPhotos

Upload Photos

1,962,540 photos uploaded!

WunderBlog® & News

Nearby

Air Quality

  Air Quality AQ Index Pollutant
Not available.

Snow Depth

Station Depth Elevation

Earthquake Activity

City Distance Mag. Time & Date
Minimum magnitude displayed is 2.5.

Earthquake Activity

City Distance Mag. Time & Date
Minimum magnitude displayed is 2.5.

Coastal Water Temperatures

Place Temperature

Stations

Nearby Weather Stations

Station Location Temp. Windchill Dew Point Humidity Wind Precip. Elev Updated Type
                   

Watches & Warnings

There are currently no watches in effect.